Strona główna
METAR-TAF:

METAR-TAF

Lotnisko :

Port lotniczy Pekanbaru

Pekanbaru, Indonezja

Szerokość geograficzna: 00-28N, Długość geograficzna: 101-27E, wysokość: 31 m

Aktualna obserwacja pogody

Raport powstał 59 minut temu, godzina 00:30 UTC
Wiatr 5 kt od południowo-południowy wschód
Temperatura 25°C
Wilgotność 94%
Ciśnienie 1010 hPa
Widzialność: 1500 m
Mało chmury na wysokości 1500 ft
dym

METAR: WIBB 260030Z 15005KT 1500 FU FEW015 25/24 Q1010

czas: 08:29 (01:29 UTC)


TAF: brakujący

Obserwacja i prognoza pogody dla ponad 4000 lotnisk (raport METAR i TAF).

Dostępne stacje oznaczono żółtymi i czerwonymi punktami na mapie.

Najedź kursorem aby zobaczyć nazwę stacji.

Kliknij aby zobaczyć obserwacje i prognozy pogody.

Aby zmienić mapę: kliknij na zielony przycisk z czarnym krzyżykiem, aby powiększyć; na zielony przycisk z myślnikiem, aby pomniejszyć; na zielone strzałki, aby przejść do map sąsiednich.


METAR-TAF: